sensor_id;sensor_type;location;lat;lon;timestamp;pressure;altitude;pressure_sealevel;temperature;humidity
10127;BME280;13080;42.608;23.362;2023-01-24T00:00:30;151718.41;;;2.43;100.00
10127;BME280;13080;42.608;23.362;2023-01-24T00:02:56;151700.38;;;2.36;100.00
10127;BME280;13080;42.608;23.362;2023-01-24T00:05:23;151705.53;;;2.38;100.00
10127;BME280;13080;42.608;23.362;2023-01-24T00:07:49;151704.19;;;2.37;100.00
10127;BME280;13080;42.608;23.362;2023-01-24T00:10:16;151706.81;;;2.38;100.00
10127;BME280;13080;42.608;23.362;2023-01-24T00:12:44;151709.38;;;2.39;100.00
10127;BME280;13080;42.608;23.362;2023-01-24T00:15:10;151723.59;;;2.45;100.00
10127;BME280;13080;42.608;23.362;2023-01-24T00:17:37;151714.53;;;2.41;100.00
10127;BME280;13080;42.608;23.362;2023-01-24T00:20:04;151722.31;;;2.44;100.00
10127;BME280;13080;42.608;23.362;2023-01-24T00:22:31;151717.13;;;2.42;100.00
10127;BME280;13080;42.608;23.362;2023-01-24T00:24:57;151727.41;;;2.46;100.00
10127;BME280;13080;42.608;23.362;2023-01-24T00:27:24;151723.59;;;2.45;100.00
10127;BME280;13080;42.608;23.362;2023-01-24T00:29:52;151717.13;;;2.42;100.00
10127;BME280;13080;42.608;23.362;2023-01-24T00:32:18;151724.84;;;2.45;100.00
10127;BME280;13080;42.608;23.362;2023-01-24T00:34:44;151708.09;;;2.39;100.00
10127;BME280;13080;42.608;23.362;2023-01-24T00:37:11;151715.81;;;2.42;100.00
10127;BME280;13080;42.608;23.362;2023-01-24T00:39:38;151713.25;;;2.41;100.00
10127;BME280;13080;42.608;23.362;2023-01-24T00:42:04;151718.41;;;2.43;100.00
10127;BME280;13080;42.608;23.362;2023-01-24T00:44:31;151710.66;;;2.40;100.00
10127;BME280;13080;42.608;23.362;2023-01-24T00:46:59;151699.03;;;2.35;100.00
10127;BME280;13080;42.608;23.362;2023-01-24T00:49:25;151688.75;;;2.31;100.00
10127;BME280;13080;42.608;23.362;2023-01-24T00:51:52;151686.16;;;2.30;100.00
10127;BME280;13080;42.608;23.362;2023-01-24T00:54:18;151677.13;;;2.26;100.00
10127;BME280;13080;42.608;23.362;2023-01-24T00:56:45;151682.25;;;2.28;100.00
10127;BME280;13080;42.608;23.362;2023-01-24T00:59:11;151682.25;;;2.28;100.00
10127;BME280;13080;42.608;23.362;2023-01-24T01:01:38;151684.88;;;2.29;100.00
10127;BME280;13080;42.608;23.362;2023-01-24T01:04:06;151682.25;;;2.28;100.00
10127;BME280;13080;42.608;23.362;2023-01-24T01:06:32;151680.97;;;2.28;100.00
10127;BME280;13080;42.608;23.362;2023-01-24T01:08:59;151697.75;;;2.35;100.00
10127;BME280;13080;42.608;23.362;2023-01-24T01:11:26;151692.59;;;2.33;100.00
10127;BME280;13080;42.608;23.362;2023-01-24T01:13:53;151669.38;;;2.23;100.00
10127;BME280;13080;42.608;23.362;2023-01-24T01:16:20;151662.94;;;2.21;100.00
10127;BME280;13080;42.608;23.362;2023-01-24T01:18:47;151666.81;;;2.22;100.00
10127;BME280;13080;42.608;23.362;2023-01-24T01:21:16;151668.09;;;2.23;100.00
10127;BME280;13080;42.608;23.362;2023-01-24T01:23:43;151653.88;;;2.17;100.00
10127;BME280;13080;42.608;23.362;2023-01-24T01:26:16;151662.94;;;2.21;100.00
10127;BME280;13080;42.608;23.362;2023-01-24T01:28:43;151662.94;;;2.21;100.00
10127;BME280;13080;42.608;23.362;2023-01-24T01:31:10;151661.66;;;2.20;100.00
10127;BME280;13080;42.608;23.362;2023-01-24T01:33:37;151651.31;;;2.16;100.00
10127;BME280;13080;42.608;23.362;2023-01-24T01:36:04;151656.47;;;2.18;100.00
10127;BME280;13080;42.608;23.362;2023-01-24T01:38:32;151642.25;;;2.13;100.00
10127;BME280;13080;42.608;23.362;2023-01-24T01:40:58;151651.31;;;2.16;100.00
10127;BME280;13080;42.608;23.362;2023-01-24T01:43:26;151632.00;;;2.08;100.00
10127;BME280;13080;42.608;23.362;2023-01-24T01:45:53;151635.81;;;2.10;100.00
10127;BME280;13080;42.608;23.362;2023-01-24T01:48:21;151642.25;;;2.13;100.00
10127;BME280;13080;42.608;23.362;2023-01-24T01:50:51;151646.16;;;2.14;100.00
10127;BME280;13080;42.608;23.362;2023-01-24T01:53:20;151624.22;;;2.05;100.00
10127;BME280;13080;42.608;23.362;2023-01-24T01:55:49;151611.31;;;2.00;100.00
10127;BME280;13080;42.608;23.362;2023-01-24T01:58:18;151624.22;;;2.05;100.00
10127;BME280;13080;42.608;23.362;2023-01-24T02:00:46;151619.06;;;2.03;100.00
10127;BME280;13080;42.608;23.362;2023-01-24T02:03:15;151632.00;;;2.08;100.00
10127;BME280;13080;42.608;23.362;2023-01-24T02:06:00;151620.34;;;2.04;100.00
10127;BME280;13080;42.608;23.362;2023-01-24T02:08:26;151608.72;;;1.99;100.00
10127;BME280;13080;42.608;23.362;2023-01-24T02:10:54;151601.00;;;1.96;100.00
10127;BME280;13080;42.608;23.362;2023-01-24T02:13:39;151608.72;;;1.99;100.00
10127;BME280;13080;42.608;23.362;2023-01-24T02:16:08;151601.00;;;1.96;100.00
10127;BME280;13080;42.608;23.362;2023-01-24T02:18:35;151604.88;;;1.98;100.00
10127;BME280;13080;42.608;23.362;2023-01-24T02:21:03;151606.16;;;1.98;100.00
10127;BME280;13080;42.608;23.362;2023-01-24T02:23:31;151570.06;;;1.84;100.00
10127;BME280;13080;42.608;23.362;2023-01-24T02:26:08;151579.06;;;1.87;100.00
10127;BME280;13080;42.608;23.362;2023-01-24T02:28:34;151594.56;;;1.94;100.00
10127;BME280;13080;42.608;23.362;2023-01-24T02:31:02;151579.06;;;1.87;100.00
10127;BME280;13080;42.608;23.362;2023-01-24T02:33:29;151575.19;;;1.86;100.00
10127;BME280;13080;42.608;23.362;2023-01-24T02:36:06;151579.06;;;1.87;100.00
10127;BME280;13080;42.608;23.362;2023-01-24T02:38:37;151591.94;;;1.93;100.00
10127;BME280;13080;42.608;23.362;2023-01-24T02:41:04;151594.56;;;1.94;100.00
10127;BME280;13080;42.608;23.362;2023-01-24T02:43:34;151610.06;;;2.00;100.00
10127;BME280;13080;42.608;23.362;2023-01-24T02:46:00;151599.72;;;1.96;100.00
10127;BME280;13080;42.608;23.362;2023-01-24T02:48:27;151607.44;;;1.99;100.00
10127;BME280;13080;42.608;23.362;2023-01-24T02:50:53;151606.16;;;1.98;100.00
10127;BME280;13080;42.608;23.362;2023-01-24T02:53:52;151599.72;;;1.96;100.00
10127;BME280;13080;42.608;23.362;2023-01-24T02:56:18;151591.94;;;1.93;100.00
10127;BME280;13080;42.608;23.362;2023-01-24T02:59:04;151582.94;;;1.89;100.00
10127;BME280;13080;42.608;23.362;2023-01-24T03:01:30;151571.34;;;1.84;100.00
10127;BME280;13080;42.608;23.362;2023-01-24T03:03:57;151576.50;;;1.86;100.00
10127;BME280;13080;42.608;23.362;2023-01-24T03:06:23;151566.19;;;1.82;100.00
10127;BME280;13080;42.608;23.362;2023-01-24T03:08:50;151582.94;;;1.89;100.00
10127;BME280;13080;42.608;23.362;2023-01-24T03:11:16;151564.91;;;1.82;100.00
10127;BME280;13080;42.608;23.362;2023-01-24T03:13:43;151567.47;;;1.83;100.00
10127;BME280;13080;42.608;23.362;2023-01-24T03:16:28;151553.31;;;1.77;100.00
10127;BME280;13080;42.608;23.362;2023-01-24T03:19:12;151559.75;;;1.80;100.00
10127;BME280;13080;42.608;23.362;2023-01-24T03:21:56;151550.69;;;1.76;100.00
10127;BME280;13080;42.608;23.362;2023-01-24T03:24:40;151553.31;;;1.77;100.00
10127;BME280;13080;42.608;23.362;2023-01-24T03:27:24;151548.13;;;1.75;100.00
10127;BME280;13080;42.608;23.362;2023-01-24T03:30:08;151561.03;;;1.80;100.00
10127;BME280;13080;42.608;23.362;2023-01-24T03:32:58;151537.81;;;1.71;100.00
10127;BME280;13080;42.608;23.362;2023-01-24T03:35:42;151540.38;;;1.72;100.00
10127;BME280;13080;42.608;23.362;2023-01-24T03:38:19;151540.38;;;1.72;100.00
10127;BME280;13080;42.608;23.362;2023-01-24T03:41:03;151542.97;;;1.73;100.00
10127;BME280;13080;42.608;23.362;2023-01-24T03:43:29;151512.00;;;1.61;100.00
10127;BME280;13080;42.608;23.362;2023-01-24T03:45:57;151526.22;;;1.66;100.00
10127;BME280;13080;42.608;23.362;2023-01-24T03:48:25;151522.31;;;1.65;100.00
10127;BME280;13080;42.608;23.362;2023-01-24T03:50:59;151508.16;;;1.59;100.00
10127;BME280;13080;42.608;23.362;2023-01-24T03:53:43;151506.84;;;1.59;100.00
10127;BME280;13080;42.608;23.362;2023-01-24T03:56:10;151483.63;;;1.50;100.00
10127;BME280;13080;42.608;23.362;2023-01-24T03:58:36;151499.13;;;1.56;100.00
10127;BME280;13080;42.608;23.362;2023-01-24T04:01:03;151473.31;;;1.45;100.00
10127;BME280;13080;42.608;23.362;2023-01-24T04:03:31;151472.03;;;1.45;100.00
10127;BME280;13080;42.608;23.362;2023-01-24T04:05:57;151475.91;;;1.47;100.00
10127;BME280;13080;42.608;23.362;2023-01-24T04:08:24;151465.59;;;1.42;100.00
10127;BME280;13080;42.608;23.362;2023-01-24T04:10:51;151456.53;;;1.39;100.00
10127;BME280;13080;42.608;23.362;2023-01-24T04:13:17;151455.28;;;1.38;100.00
10127;BME280;13080;42.608;23.362;2023-01-24T04:15:44;151463.03;;;1.41;100.00
10127;BME280;13080;42.608;23.362;2023-01-24T04:18:10;151461.72;;;1.41;100.00
10127;BME280;13080;42.608;23.362;2023-01-24T04:20:39;151463.03;;;1.41;100.00
10127;BME280;13080;42.608;23.362;2023-01-24T04:23:06;151454.00;;;1.38;100.00
10127;BME280;13080;42.608;23.362;2023-01-24T04:25:33;151457.88;;;1.39;100.00
10127;BME280;13080;42.608;23.362;2023-01-24T04:28:00;151473.31;;;1.45;100.00
10127;BME280;13080;42.608;23.362;2023-01-24T04:30:26;151486.25;;;1.51;100.00
10127;BME280;13080;42.608;23.362;2023-01-24T04:32:53;151475.91;;;1.47;100.00
10127;BME280;13080;42.608;23.362;2023-01-24T04:35:20;151472.03;;;1.45;100.00
10127;BME280;13080;42.608;23.362;2023-01-24T04:37:49;151469.47;;;1.44;100.00
10127;BME280;13080;42.608;23.362;2023-01-24T04:40:16;151466.88;;;1.43;100.00
10127;BME280;13080;42.608;23.362;2023-01-24T04:42:42;151465.59;;;1.42;100.00
10127;BME280;13080;42.608;23.362;2023-01-24T04:45:09;151477.19;;;1.47;100.00
10127;BME280;13080;42.608;23.362;2023-01-24T04:47:36;151465.59;;;1.42;100.00
10127;BME280;13080;42.608;23.362;2023-01-24T04:50:03;151454.00;;;1.38;100.00
10127;BME280;13080;42.608;23.362;2023-01-24T04:52:29;151444.94;;;1.34;100.00
10127;BME280;13080;42.608;23.362;2023-01-24T04:54:57;151452.72;;;1.37;100.00
10127;BME280;13080;42.608;23.362;2023-01-24T04:57:24;151461.72;;;1.41;100.00
10127;BME280;13080;42.608;23.362;2023-01-24T04:59:50;151463.03;;;1.41;100.00
10127;BME280;13080;42.608;23.362;2023-01-24T05:02:17;151437.22;;;1.31;100.00
10127;BME280;13080;42.608;23.362;2023-01-24T05:04:43;151442.41;;;1.33;100.00
10127;BME280;13080;42.608;23.362;2023-01-24T05:07:10;151433.34;;;1.30;100.00
10127;BME280;13080;42.608;23.362;2023-01-24T05:09:36;151430.78;;;1.29;100.00
10127;BME280;13080;42.608;23.362;2023-01-24T05:12:04;151433.34;;;1.30;100.00
10127;BME280;13080;42.608;23.362;2023-01-24T05:14:31;151425.63;;;1.27;100.00
10127;BME280;13080;42.608;23.362;2023-01-24T05:16:57;151428.19;;;1.28;100.00
10127;BME280;13080;42.608;23.362;2023-01-24T05:19:24;151402.44;;;1.17;100.00
10127;BME280;13080;42.608;23.362;2023-01-24T05:21:50;151406.31;;;1.19;100.00
10127;BME280;13080;42.608;23.362;2023-01-24T05:24:17;151403.72;;;1.18;100.00
10127;BME280;13080;42.608;23.362;2023-01-24T05:26:44;151408.88;;;1.20;100.00
10127;BME280;13080;42.608;23.362;2023-01-24T05:29:12;151410.16;;;1.20;100.00
10127;BME280;13080;42.608;23.362;2023-01-24T05:31:38;151408.88;;;1.20;100.00
10127;BME280;13080;42.608;23.362;2023-01-24T05:34:05;151407.59;;;1.19;100.00
10127;BME280;13080;42.608;23.362;2023-01-24T05:36:31;151406.31;;;1.19;100.00
10127;BME280;13080;42.608;23.362;2023-01-24T05:38:58;151401.16;;;1.17;100.00
10127;BME280;13080;42.608;23.362;2023-01-24T05:41:24;151406.31;;;1.19;100.00
10127;BME280;13080;42.608;23.362;2023-01-24T05:43:51;151399.81;;;1.16;100.00
10127;BME280;13080;42.608;23.362;2023-01-24T05:46:19;151390.84;;;1.13;100.00
10127;BME280;13080;42.608;23.362;2023-01-24T05:48:46;151401.16;;;1.17;100.00
10127;BME280;13080;42.608;23.362;2023-01-24T05:51:14;151394.66;;;1.14;100.00
10127;BME280;13080;42.608;23.362;2023-01-24T05:53:41;151410.16;;;1.20;100.00
10127;BME280;13080;42.608;23.362;2023-01-24T05:56:09;151399.81;;;1.16;100.00
10127;BME280;13080;42.608;23.362;2023-01-24T05:58:37;151403.72;;;1.18;100.00
10127;BME280;13080;42.608;23.362;2023-01-24T06:01:11;151397.28;;;1.15;100.00
10127;BME280;13080;42.608;23.362;2023-01-24T06:03:39;151394.66;;;1.14;100.00
10127;BME280;13080;42.608;23.362;2023-01-24T06:06:07;151386.94;;;1.11;100.00
10127;BME280;13080;42.608;23.362;2023-01-24T06:08:33;151397.28;;;1.15;100.00
10127;BME280;13080;42.608;23.362;2023-01-24T06:11:03;151389.56;;;1.12;100.00
10127;BME280;13080;42.608;23.362;2023-01-24T06:13:30;151402.44;;;1.17;100.00
10127;BME280;13080;42.608;23.362;2023-01-24T06:16:00;151399.81;;;1.16;100.00
10127;BME280;13080;42.608;23.362;2023-01-24T06:18:27;151408.88;;;1.20;100.00
10127;BME280;13080;42.608;23.362;2023-01-24T06:20:55;151393.38;;;1.14;100.00
10127;BME280;13080;42.608;23.362;2023-01-24T06:23:22;151376.63;;;1.07;100.00
10127;BME280;13080;42.608;23.362;2023-01-24T06:25:50;151367.63;;;1.03;100.00
10127;BME280;13080;42.608;23.362;2023-01-24T06:28:16;151370.19;;;1.04;100.00
10127;BME280;13080;42.608;23.362;2023-01-24T06:30:43;151380.50;;;1.09;100.00
10127;BME280;13080;42.608;23.362;2023-01-24T06:33:21;151377.91;;;1.08;100.00
10127;BME280;13080;42.608;23.362;2023-01-24T06:35:55;151361.19;;;1.01;100.00
10127;BME280;13080;42.608;23.362;2023-01-24T06:38:28;151361.19;;;1.01;100.00
10127;BME280;13080;42.608;23.362;2023-01-24T06:40:56;151343.13;;;0.94;100.00
10127;BME280;13080;42.608;23.362;2023-01-24T06:43:23;151352.16;;;0.97;100.00
10127;BME280;13080;42.608;23.362;2023-01-24T06:45:49;151339.28;;;0.92;100.00
10127;BME280;13080;42.608;23.362;2023-01-24T06:48:16;151347.00;;;0.95;100.00
10127;BME280;13080;42.608;23.362;2023-01-24T06:50:42;151331.53;;;0.89;100.00
10127;BME280;13080;42.608;23.362;2023-01-24T06:53:09;151327.69;;;0.88;100.00
10127;BME280;13080;42.608;23.362;2023-01-24T06:55:37;151313.50;;;0.82;100.00
10127;BME280;13080;42.608;23.362;2023-01-24T06:58:03;151318.66;;;0.84;100.00
10127;BME280;13080;42.608;23.362;2023-01-24T07:00:30;151327.69;;;0.88;100.00
10127;BME280;13080;42.608;23.362;2023-01-24T07:02:57;151332.81;;;0.90;100.00
10127;BME280;13080;42.608;23.362;2023-01-24T07:05:24;151330.25;;;0.89;100.00
10127;BME280;13080;42.608;23.362;2023-01-24T07:07:51;151330.25;;;0.89;100.00
10127;BME280;13080;42.608;23.362;2023-01-24T07:10:17;151331.53;;;0.89;100.00
10127;BME280;13080;42.608;23.362;2023-01-24T07:12:45;151325.09;;;0.87;100.00
10127;BME280;13080;42.608;23.362;2023-01-24T07:15:12;151317.38;;;0.83;100.00
10127;BME280;13080;42.608;23.362;2023-01-24T07:17:39;151308.34;;;0.80;100.00
10127;BME280;13080;42.608;23.362;2023-01-24T07:20:06;151287.69;;;0.72;100.00
10127;BME280;13080;42.608;23.362;2023-01-24T07:22:34;151300.63;;;0.77;100.00
10127;BME280;13080;42.608;23.362;2023-01-24T07:25:03;151314.78;;;0.82;100.00
10127;BME280;13080;42.608;23.362;2023-01-24T07:27:29;151317.38;;;0.83;100.00
10127;BME280;13080;42.608;23.362;2023-01-24T07:29:57;151321.22;;;0.85;100.00
10127;BME280;13080;42.608;23.362;2023-01-24T07:32:24;151319.94;;;0.85;100.00
10127;BME280;13080;42.608;23.362;2023-01-24T07:34:50;151322.53;;;0.86;100.00
10127;BME280;13080;42.608;23.362;2023-01-24T07:37:17;151330.25;;;0.89;100.00
10127;BME280;13080;42.608;23.362;2023-01-24T07:39:46;151345.72;;;0.95;100.00
10127;BME280;13080;42.608;23.362;2023-01-24T07:42:13;151343.13;;;0.94;100.00
10127;BME280;13080;42.608;23.362;2023-01-24T07:44:39;151354.72;;;0.98;100.00
10127;BME280;13080;42.608;23.362;2023-01-24T07:47:07;151347.00;;;0.95;100.00
10127;BME280;13080;42.608;23.362;2023-01-24T07:49:33;151344.44;;;0.94;100.00
10127;BME280;13080;42.608;23.362;2023-01-24T07:52:00;151344.44;;;0.94;100.00
10127;BME280;13080;42.608;23.362;2023-01-24T07:54:26;151350.88;;;0.97;100.00
10127;BME280;13080;42.608;23.362;2023-01-24T07:56:53;151341.84;;;0.93;100.00
10127;BME280;13080;42.608;23.362;2023-01-24T07:59:19;151339.28;;;0.92;100.00
10127;BME280;13080;42.608;23.362;2023-01-24T08:01:46;151341.84;;;0.93;100.00
10127;BME280;13080;42.608;23.362;2023-01-24T08:04:14;151352.16;;;0.97;100.00
10127;BME280;13080;42.608;23.362;2023-01-24T08:06:41;151348.28;;;0.96;100.00
10127;BME280;13080;42.608;23.362;2023-01-24T08:09:27;151330.25;;;0.89;100.00
10127;BME280;13080;42.608;23.362;2023-01-24T08:11:54;151348.28;;;0.96;100.00
10127;BME280;13080;42.608;23.362;2023-01-24T08:14:21;151371.47;;;1.05;100.00
10127;BME280;13080;42.608;23.362;2023-01-24T08:16:47;151350.88;;;0.97;100.00
10127;BME280;13080;42.608;23.362;2023-01-24T08:19:15;151348.28;;;0.96;100.00
10127;BME280;13080;42.608;23.362;2023-01-24T08:21:41;151358.59;;;1.00;100.00
10127;BME280;13080;42.608;23.362;2023-01-24T08:24:08;151363.75;;;1.02;100.00
10127;BME280;13080;42.608;23.362;2023-01-24T08:26:34;151357.31;;;0.99;100.00
10127;BME280;13080;42.608;23.362;2023-01-24T08:29:01;151385.69;;;1.11;100.00
10127;BME280;13080;42.608;23.362;2023-01-24T08:31:27;151389.56;;;1.12;100.00
10127;BME280;13080;42.608;23.362;2023-01-24T08:33:54;151425.63;;;1.27;100.00
10127;BME280;13080;42.608;23.362;2023-01-24T08:36:22;151410.16;;;1.20;100.00
10127;BME280;13080;42.608;23.362;2023-01-24T08:38:49;151428.19;;;1.28;100.00
10127;BME280;13080;42.608;23.362;2023-01-24T08:41:15;151454.00;;;1.38;100.00
10127;BME280;13080;42.608;23.362;2023-01-24T08:43:41;151454.00;;;1.38;100.00
10127;BME280;13080;42.608;23.362;2023-01-24T08:46:08;151469.47;;;1.44;100.00
10127;BME280;13080;42.608;23.362;2023-01-24T08:48:34;151481.06;;;1.49;100.00
10127;BME280;13080;42.608;23.362;2023-01-24T08:51:02;151447.56;;;1.35;100.00
10127;BME280;13080;42.608;23.362;2023-01-24T08:53:30;151469.47;;;1.44;100.00
10127;BME280;13080;42.608;23.362;2023-01-24T08:55:56;151433.34;;;1.30;100.00
10127;BME280;13080;42.608;23.362;2023-01-24T08:58:23;151398.56;;;1.16;100.00
10127;BME280;13080;42.608;23.362;2023-01-24T09:00:49;151433.34;;;1.30;100.00
10127;BME280;13080;42.608;23.362;2023-01-24T09:03:16;151452.72;;;1.37;100.00
10127;BME280;13080;42.608;23.362;2023-01-24T09:05:43;151512.00;;;1.61;100.00
10127;BME280;13080;42.608;23.362;2023-01-24T09:08:09;151505.56;;;1.58;100.00
10127;BME280;13080;42.608;23.362;2023-01-24T09:10:38;151510.72;;;1.60;100.00
10127;BME280;13080;42.608;23.362;2023-01-24T09:13:04;151517.16;;;1.63;100.00
10127;BME280;13080;42.608;23.362;2023-01-24T09:15:31;151526.22;;;1.66;100.00
10127;BME280;13080;42.608;23.362;2023-01-24T09:17:59;151524.94;;;1.66;100.00
10127;BME280;13080;42.608;23.362;2023-01-24T09:20:26;151558.41;;;1.79;100.00
10127;BME280;13080;42.608;23.362;2023-01-24T09:22:52;151572.63;;;1.85;100.00
10127;BME280;13080;42.608;23.362;2023-01-24T09:25:19;151607.44;;;1.99;100.00
10127;BME280;13080;42.608;23.362;2023-01-24T09:27:49;151633.28;;;2.09;100.00
10127;BME280;13080;42.608;23.362;2023-01-24T09:30:18;151588.13;;;1.91;100.00
10127;BME280;13080;42.608;23.362;2023-01-24T09:32:45;151567.47;;;1.83;100.00
10127;BME280;13080;42.608;23.362;2023-01-24T09:35:12;151537.81;;;1.71;100.00
10127;BME280;13080;42.608;23.362;2023-01-24T09:37:38;151524.94;;;1.66;100.00
10127;BME280;13080;42.608;23.362;2023-01-24T09:40:09;151503.00;;;1.57;100.00
10127;BME280;13080;42.608;23.362;2023-01-24T09:42:44;151514.59;;;1.62;100.00
10127;BME280;13080;42.608;23.362;2023-01-24T09:45:17;151487.50;;;1.51;100.00
10127;BME280;13080;42.608;23.362;2023-01-24T09:47:46;151479.81;;;1.48;100.00
10127;BME280;13080;42.608;23.362;2023-01-24T09:50:16;151478.47;;;1.48;100.00
10127;BME280;13080;42.608;23.362;2023-01-24T09:52:43;151464.31;;;1.42;100.00
10127;BME280;13080;42.608;23.362;2023-01-24T09:55:12;151463.03;;;1.41;100.00
10127;BME280;13080;42.608;23.362;2023-01-24T09:57:42;151460.44;;;1.40;100.00
10127;BME280;13080;42.608;23.362;2023-01-24T10:00:14;151456.53;;;1.39;100.00
10127;BME280;13080;42.608;23.362;2023-01-24T10:02:44;151419.19;;;1.24;100.00
10127;BME280;13080;42.608;23.362;2023-01-24T10:05:14;151434.69;;;1.30;100.00
10127;BME280;13080;42.608;23.362;2023-01-24T10:10:32;151521.03;;;1.64;100.00
10127;BME280;13080;42.608;23.362;2023-01-24T10:13:08;151526.22;;;1.66;100.00
10127;BME280;13080;42.608;23.362;2023-01-24T10:15:42;151530.03;;;1.68;100.00
10127;BME280;13080;42.608;23.362;2023-01-24T10:18:24;151515.88;;;1.62;100.00
10127;BME280;13080;42.608;23.362;2023-01-24T10:20:56;151497.84;;;1.55;100.00
10127;BME280;13080;42.608;23.362;2023-01-24T10:23:26;151490.06;;;1.52;100.00
10127;BME280;13080;42.608;23.362;2023-01-24T10:25:56;151512.00;;;1.61;100.00
10127;BME280;13080;42.608;23.362;2023-01-24T10:28:26;151532.66;;;1.69;100.00
10127;BME280;13080;42.608;23.362;2023-01-24T10:30:55;151581.69;;;1.89;100.00
10127;BME280;13080;42.608;23.362;2023-01-24T10:33:26;151584.22;;;1.90;100.00
10127;BME280;13080;42.608;23.362;2023-01-24T10:35:55;151557.13;;;1.79;100.00
10127;BME280;13080;42.608;23.362;2023-01-24T10:38:22;151541.69;;;1.73;100.00
10127;BME280;13080;42.608;23.362;2023-01-24T10:40:49;151492.69;;;1.53;100.00
10127;BME280;13080;42.608;23.362;2023-01-24T10:43:16;151439.78;;;1.32;100.00
10127;BME280;13080;42.608;23.362;2023-01-24T10:45:45;151423.03;;;1.25;100.00
10127;BME280;13080;42.608;23.362;2023-01-24T10:48:19;151394.66;;;1.14;100.00
10127;BME280;13080;42.608;23.362;2023-01-24T10:50:50;151403.72;;;1.18;100.00
10127;BME280;13080;42.608;23.362;2023-01-24T10:53:21;151428.19;;;1.28;100.00
10127;BME280;13080;42.608;23.362;2023-01-24T10:55:48;151454.00;;;1.38;100.00
10127;BME280;13080;42.608;23.362;2023-01-24T10:58:19;151448.81;;;1.36;100.00
10127;BME280;13080;42.608;23.362;2023-01-24T11:00:45;151416.59;;;1.23;100.00
10127;BME280;13080;42.608;23.362;2023-01-24T11:03:16;151348.28;;;0.96;100.00
10127;BME280;13080;42.608;23.362;2023-01-24T11:05:44;151349.56;;;0.96;100.00
10127;BME280;13080;42.608;23.362;2023-01-24T11:08:16;151345.72;;;0.95;100.00
10127;BME280;13080;42.608;23.362;2023-01-24T11:10:43;151374.06;;;1.06;100.00
10127;BME280;13080;42.608;23.362;2023-01-24T11:15:55;151383.06;;;1.10;100.00
10127;BME280;13080;42.608;23.362;2023-01-24T11:18:26;151365.03;;;1.02;100.00
10127;BME280;13080;42.608;23.362;2023-01-24T11:23:36;151367.63;;;1.03;100.00
10127;BME280;13080;42.608;23.362;2023-01-24T11:26:04;151367.63;;;1.03;100.00
10127;BME280;13080;42.608;23.362;2023-01-24T11:28:31;151367.63;;;1.03;100.00
10127;BME280;13080;42.608;23.362;2023-01-24T11:30:59;151356.03;;;0.99;100.00
10127;BME280;13080;42.608;23.362;2023-01-24T11:33:34;151388.22;;;1.12;100.00
10127;BME280;13080;42.608;23.362;2023-01-24T11:36:07;151366.31;;;1.03;100.00
10127;BME280;13080;42.608;23.362;2023-01-24T11:38:40;151374.06;;;1.06;100.00
10127;BME280;13080;42.608;23.362;2023-01-24T11:41:09;151358.59;;;1.00;100.00
10127;BME280;13080;42.608;23.362;2023-01-24T11:43:49;151366.31;;;1.03;100.00
10127;BME280;13080;42.608;23.362;2023-01-24T11:46:29;151384.41;;;1.10;100.00
10127;BME280;13080;42.608;23.362;2023-01-24T11:49:04;151377.91;;;1.08;100.00
10127;BME280;13080;42.608;23.362;2023-01-24T11:51:41;151407.59;;;1.19;100.00
10127;BME280;13080;42.608;23.362;2023-01-24T11:54:19;151380.50;;;1.09;100.00
10127;BME280;13080;42.608;23.362;2023-01-24T11:56:52;151372.81;;;1.06;100.00
10127;BME280;13080;42.608;23.362;2023-01-24T11:59:26;151344.44;;;0.94;100.00
10127;BME280;13080;42.608;23.362;2023-01-24T12:01:55;151343.13;;;0.94;100.00
10127;BME280;13080;42.608;23.362;2023-01-24T12:04:41;151357.31;;;0.99;100.00
10127;BME280;13080;42.608;23.362;2023-01-24T12:07:13;151397.28;;;1.15;100.00
10127;BME280;13080;42.608;23.362;2023-01-24T12:09:47;151401.16;;;1.17;100.00
10127;BME280;13080;42.608;23.362;2023-01-24T12:12:16;151388.22;;;1.12;100.00
10127;BME280;13080;42.608;23.362;2023-01-24T12:14:56;151363.75;;;1.02;100.00
10127;BME280;13080;42.608;23.362;2023-01-24T12:17:37;151341.84;;;0.93;100.00
10127;BME280;13080;42.608;23.362;2023-01-24T12:20:11;151310.94;;;0.81;100.00
10127;BME280;13080;42.608;23.362;2023-01-24T12:22:44;151286.41;;;0.71;100.00
10127;BME280;13080;42.608;23.362;2023-01-24T12:25:16;151276.09;;;0.67;100.00
10127;BME280;13080;42.608;23.362;2023-01-24T12:27:45;151258.06;;;0.60;100.00
10127;BME280;13080;42.608;23.362;2023-01-24T12:30:13;151264.50;;;0.62;100.00
10127;BME280;13080;42.608;23.362;2023-01-24T12:32:40;151251.63;;;0.57;100.00
10127;BME280;13080;42.608;23.362;2023-01-24T12:35:12;151229.72;;;0.49;100.00
10127;BME280;13080;42.608;23.362;2023-01-24T12:37:43;151251.63;;;0.57;100.00
10127;BME280;13080;42.608;23.362;2023-01-24T12:40:17;151240.03;;;0.53;100.00
10127;BME280;13080;42.608;23.362;2023-01-24T12:42:47;151278.72;;;0.68;100.00
10127;BME280;13080;42.608;23.362;2023-01-24T12:45:18;151314.78;;;0.82;100.00
10127;BME280;13080;42.608;23.362;2023-01-24T12:47:46;151343.13;;;0.94;100.00
10127;BME280;13080;42.608;23.362;2023-01-24T12:50:16;151393.38;;;1.14;100.00
10127;BME280;13080;42.608;23.362;2023-01-24T12:52:47;151416.59;;;1.23;100.00
10127;BME280;13080;42.608;23.362;2023-01-24T12:55:21;151470.75;;;1.44;100.00
10127;BME280;13080;42.608;23.362;2023-01-24T12:57:50;151518.44;;;1.63;100.00